Terminal Aerodrome Forecast
Issued by NWS Louisville, KY

Home | Current Version | Previous Version | Text Only | Print | Product List | Glossary On
Versions: 1 2 3 4 5 6 7 8 9 10 11 12 13 14 15 16 17 18
000
FTUS43 KLMK 291100
TAFBWG
TAF
KBWG 291120Z 2912/3012 13004KT P6SM SCT025 SCT250
     FM291400 19009KT P6SM VCSH BKN025
     FM291700 20012KT P6SM VCTS BKN040CB
     FM300100 18007KT P6SM SCT040 SCT250=

USA.gov is the U.S. government's official web portal to all federal, state and local government web resources and services.